createdAt,value
2019-03-31T00:01:47.634Z,7.80
2019-03-31T00:04:17.048Z,7.70
2019-03-31T00:06:46.460Z,7.73
2019-03-31T00:09:15.992Z,8.27
2019-03-31T00:11:45.422Z,8.37
2019-03-31T00:14:14.930Z,9.10
2019-03-31T00:16:44.540Z,8.30
2019-03-31T00:19:13.952Z,8.30
2019-03-31T00:21:43.526Z,8.70
2019-03-31T00:24:13.336Z,9.27
2019-03-31T00:26:42.775Z,8.73
2019-03-31T00:29:12.110Z,9.00
2019-03-31T00:31:41.512Z,8.17
2019-03-31T00:34:10.924Z,8.40
2019-03-31T00:36:40.329Z,8.10
2019-03-31T00:39:10.243Z,8.13
2019-03-31T00:41:39.704Z,8.67
2019-03-31T00:44:09.468Z,7.67
2019-03-31T00:46:38.938Z,8.37
2019-03-31T00:49:08.273Z,8.07
2019-03-31T00:51:37.720Z,8.87
2019-03-31T00:54:07.436Z,7.80
2019-03-31T00:56:36.904Z,9.07
2019-03-31T00:59:06.888Z,9.77
2019-03-31T01:01:51.670Z,10.90
2019-03-31T01:04:24.312Z,11.70
2019-03-31T01:06:55.381Z,11.43
2019-03-31T01:09:29.987Z,10.77
2019-03-31T01:11:59.996Z,10.13
2019-03-31T01:14:29.644Z,10.03
2019-03-31T01:16:59.870Z,9.30
2019-03-31T01:19:29.908Z,9.70
2019-03-31T01:21:59.531Z,10.17
2019-03-31T01:24:28.864Z,9.60
2019-03-31T01:26:58.396Z,10.23
2019-03-31T01:29:27.860Z,10.47
2019-03-31T01:31:57.474Z,8.80
2019-03-31T01:34:26.972Z,8.43
2019-03-31T01:36:56.473Z,8.90
2019-03-31T01:39:27.448Z,8.10
2019-03-31T01:41:56.848Z,9.67
2019-03-31T01:44:26.312Z,7.70
2019-03-31T01:46:55.830Z,8.33
2019-03-31T01:49:25.232Z,8.20
2019-03-31T01:51:54.747Z,8.63
2019-03-31T01:54:24.276Z,8.00
2019-03-31T01:56:53.700Z,8.50
2019-03-31T01:59:23.107Z,8.57
2019-03-31T02:02:03.586Z,8.07
2019-03-31T02:04:23.704Z,7.33
2019-03-31T02:06:53.110Z,8.20
2019-03-31T02:09:22.695Z,8.60
2019-03-31T02:11:52.159Z,8.67
2019-03-31T02:14:21.689Z,8.07
2019-03-31T02:16:51.055Z,7.57
2019-03-31T02:19:20.589Z,8.53
2019-03-31T02:21:50.056Z,9.00
2019-03-31T02:24:19.403Z,8.53
2019-03-31T02:26:48.920Z,7.60
2019-03-31T02:29:18.683Z,8.43
2019-03-31T02:31:48.200Z,8.80
2019-03-31T02:34:17.569Z,8.30
2019-03-31T02:36:47.001Z,9.17
2019-03-31T02:39:16.420Z,8.90
2019-03-31T02:41:45.857Z,9.70
2019-03-31T02:44:15.294Z,8.70
2019-03-31T02:46:44.721Z,9.53
2019-03-31T02:49:14.258Z,8.17
2019-03-31T02:51:43.816Z,9.60
2019-03-31T02:54:13.628Z,9.80
2019-03-31T02:56:43.517Z,9.60
2019-03-31T02:59:14.369Z,9.47
2019-03-31T03:01:45.173Z,9.73
2019-03-31T03:04:17.228Z,9.57
2019-03-31T03:06:49.887Z,9.93
2019-03-31T03:09:21.333Z,9.00
2019-03-31T03:11:54.029Z,9.03
2019-03-31T03:14:26.718Z,9.20
2019-03-31T03:16:56.668Z,8.53
2019-03-31T03:19:26.093Z,9.40
2019-03-31T03:21:55.885Z,9.50
2019-03-31T03:24:25.428Z,9.50
2019-03-31T03:26:54.812Z,9.30
2019-03-31T03:29:24.346Z,10.10
2019-03-31T03:31:53.877Z,9.17
2019-03-31T03:34:23.584Z,8.27
2019-03-31T03:36:52.969Z,9.07
2019-03-31T03:39:22.510Z,8.77
2019-03-31T03:41:51.925Z,9.67
2019-03-31T03:44:21.285Z,8.90
2019-03-31T03:46:50.604Z,9.60
2019-03-31T03:49:20.205Z,9.60
2019-03-31T03:51:49.873Z,9.67
2019-03-31T03:54:19.642Z,9.27
2019-03-31T03:56:49.082Z,9.23
2019-03-31T03:59:18.811Z,9.80
2019-03-31T04:01:48.303Z,8.80
2019-03-31T04:04:17.785Z,10.30
2019-03-31T04:06:47.338Z,9.17
2019-03-31T04:09:16.749Z,8.93
2019-03-31T04:11:46.272Z,9.33
2019-03-31T04:14:15.832Z,9.30
2019-03-31T04:16:45.311Z,10.30
2019-03-31T04:19:14.656Z,9.67
2019-03-31T04:21:44.374Z,10.20
2019-03-31T04:24:13.800Z,9.37
2019-03-31T04:26:43.542Z,9.33
2019-03-31T04:29:12.918Z,9.27
2019-03-31T04:31:42.425Z,10.20
2019-03-31T04:34:11.936Z,10.03
2019-03-31T04:36:41.517Z,10.03
2019-03-31T04:39:11.088Z,10.87
2019-03-31T04:41:40.761Z,9.63
2019-03-31T04:44:10.141Z,9.20
2019-03-31T04:46:39.507Z,9.60
2019-03-31T04:49:09.024Z,9.80
2019-03-31T04:51:38.440Z,10.73
2019-03-31T04:54:07.894Z,9.17
2019-03-31T04:56:37.412Z,9.10
2019-03-31T04:59:06.842Z,9.47
2019-03-31T05:01:36.253Z,9.10
2019-03-31T05:04:05.968Z,10.13
2019-03-31T05:06:35.442Z,9.30
2019-03-31T05:09:06.228Z,9.60
2019-03-31T05:11:35.824Z,8.93
2019-03-31T05:14:05.816Z,9.27
2019-03-31T05:16:35.140Z,8.47
2019-03-31T05:19:04.728Z,10.10
2019-03-31T05:21:34.280Z,8.80
2019-03-31T05:24:03.633Z,8.93
2019-03-31T05:26:32.944Z,9.00
2019-03-31T05:29:02.400Z,9.50
2019-03-31T05:31:31.731Z,9.03
2019-03-31T05:34:01.056Z,8.60
2019-03-31T05:36:30.468Z,9.17
2019-03-31T05:38:59.912Z,9.50
2019-03-31T05:41:29.329Z,8.20
2019-03-31T05:44:05.647Z,9.50
2019-03-31T05:46:29.994Z,9.30
2019-03-31T05:48:59.527Z,8.60
2019-03-31T05:51:28.896Z,8.87
2019-03-31T05:53:58.271Z,8.60
2019-03-31T05:56:27.601Z,9.80
2019-03-31T05:58:57.233Z,9.90
2019-03-31T06:01:26.781Z,10.30
2019-03-31T06:03:56.220Z,9.07
2019-03-31T06:06:25.794Z,9.27
2019-03-31T06:08:55.192Z,8.60
2019-03-31T06:11:24.621Z,9.20
2019-03-31T06:13:54.040Z,9.40
2019-03-31T06:16:24.488Z,9.53
2019-03-31T06:18:54.089Z,9.67
2019-03-31T06:21:23.741Z,9.70
2019-03-31T06:23:53.599Z,9.37
2019-03-31T06:26:23.144Z,9.87
2019-03-31T06:28:52.924Z,10.53
2019-03-31T06:31:22.415Z,8.80
2019-03-31T06:33:51.970Z,9.80
2019-03-31T06:36:21.735Z,9.80
2019-03-31T06:38:51.297Z,10.03
2019-03-31T06:41:21.047Z,10.10
2019-03-31T06:43:50.580Z,10.90
2019-03-31T06:46:20.061Z,10.03
2019-03-31T06:48:49.776Z,9.40
2019-03-31T06:51:19.247Z,9.13
2019-03-31T06:53:48.837Z,10.93
2019-03-31T06:56:18.316Z,11.80
2019-03-31T06:58:47.693Z,11.40
2019-03-31T07:01:17.235Z,11.40
2019-03-31T07:03:46.568Z,10.83
2019-03-31T07:06:16.020Z,11.33
2019-03-31T07:08:45.925Z,10.47
2019-03-31T07:11:15.356Z,11.50
2019-03-31T07:13:44.760Z,11.50
2019-03-31T07:16:14.377Z,11.50
2019-03-31T07:18:44.033Z,11.80
2019-03-31T07:21:13.381Z,11.90
2019-03-31T07:23:42.947Z,11.47
2019-03-31T07:26:12.748Z,11.47
2019-03-31T07:28:42.288Z,10.80
2019-03-31T07:31:11.694Z,11.80
2019-03-31T07:33:41.190Z,10.90
2019-03-31T07:36:12.628Z,12.47
2019-03-31T07:38:42.494Z,11.43
2019-03-31T07:41:13.334Z,11.73
2019-03-31T07:43:43.124Z,12.67
2019-03-31T07:46:12.700Z,11.93
2019-03-31T07:48:42.405Z,12.37
2019-03-31T07:51:11.944Z,13.73
2019-03-31T07:53:41.745Z,11.90
2019-03-31T07:56:11.201Z,13.40
2019-03-31T07:58:40.732Z,14.13
2019-03-31T08:01:10.288Z,12.90
2019-03-31T08:03:39.728Z,13.20
2019-03-31T08:06:09.185Z,12.77
2019-03-31T08:08:38.988Z,12.67
2019-03-31T08:11:08.469Z,12.20
2019-03-31T08:13:37.875Z,13.27
2019-03-31T08:16:07.561Z,13.70
2019-03-31T08:18:37.026Z,11.67
2019-03-31T08:21:06.810Z,13.13
2019-03-31T08:23:36.212Z,12.30
2019-03-31T08:26:05.677Z,12.40
2019-03-31T08:28:35.364Z,12.40
2019-03-31T08:31:04.988Z,13.80
2019-03-31T08:33:34.802Z,12.23
2019-03-31T08:36:04.191Z,12.57
2019-03-31T08:38:33.725Z,13.07
2019-03-31T08:41:03.268Z,12.70
2019-03-31T08:43:37.380Z,13.17
2019-03-31T08:46:09.773Z,12.50
2019-03-31T08:48:39.348Z,12.60
2019-03-31T08:51:08.809Z,12.50
2019-03-31T08:53:44.142Z,12.67
2019-03-31T08:56:14.069Z,12.53
2019-03-31T08:58:43.593Z,11.70
2019-03-31T09:01:14.976Z,13.03
2019-03-31T09:03:44.404Z,13.80
2019-03-31T09:06:14.119Z,14.23
2019-03-31T09:08:43.729Z,13.90
2019-03-31T09:11:13.823Z,11.97
2019-03-31T09:13:43.301Z,14.27
2019-03-31T09:16:16.028Z,13.77
2019-03-31T09:18:45.589Z,11.53
2019-03-31T09:21:15.273Z,13.87
2019-03-31T09:23:44.953Z,14.40
2019-03-31T09:26:14.644Z,13.70
2019-03-31T09:28:44.197Z,13.03
2019-03-31T09:31:13.765Z,12.70
2019-03-31T09:33:43.264Z,13.50
2019-03-31T09:36:16.409Z,12.43
2019-03-31T09:38:44.086Z,12.10
2019-03-31T09:41:13.697Z,14.10
2019-03-31T09:43:43.297Z,12.67
2019-03-31T09:46:12.960Z,13.00
2019-03-31T09:48:42.349Z,13.70
2019-03-31T09:51:11.937Z,11.40
2019-03-31T09:53:41.541Z,12.20
2019-03-31T09:56:11.008Z,11.13
2019-03-31T09:58:40.396Z,13.37
2019-03-31T10:01:09.938Z,11.33
2019-03-31T10:03:39.448Z,9.90
2019-03-31T10:06:10.927Z,10.20
2019-03-31T10:08:41.128Z,10.57
2019-03-31T10:11:10.557Z,12.13
2019-03-31T10:13:40.133Z,11.50
2019-03-31T10:16:09.801Z,9.37
2019-03-31T10:18:39.613Z,10.07
2019-03-31T10:21:11.421Z,11.83
2019-03-31T10:23:40.908Z,10.40
2019-03-31T10:26:12.412Z,11.40
2019-03-31T10:28:42.191Z,10.40
2019-03-31T10:31:11.764Z,11.40
2019-03-31T10:33:41.250Z,8.30
2019-03-31T10:36:12.944Z,12.43
2019-03-31T10:38:43.009Z,10.43
2019-03-31T10:41:12.355Z,11.00
2019-03-31T10:43:41.893Z,10.13
2019-03-31T10:46:11.756Z,10.70
2019-03-31T10:48:44.283Z,9.83
2019-03-31T10:51:13.857Z,10.43
2019-03-31T10:53:43.828Z,10.53
2019-03-31T10:56:13.488Z,10.93
2019-03-31T10:58:43.060Z,11.20
2019-03-31T11:01:12.705Z,11.30
2019-03-31T11:03:42.104Z,11.90
2019-03-31T11:06:12.499Z,9.40
2019-03-31T11:08:42.648Z,11.53
2019-03-31T11:11:12.234Z,11.10
2019-03-31T11:13:41.780Z,10.87
2019-03-31T11:16:11.270Z,9.67
2019-03-31T11:18:40.833Z,10.10
2019-03-31T11:21:21.984Z,8.80
2019-03-31T11:23:53.033Z,9.63
2019-03-31T11:26:22.604Z,9.87
2019-03-31T11:28:51.982Z,9.17
2019-03-31T11:31:21.460Z,9.90
2019-03-31T11:33:50.929Z,10.23
2019-03-31T11:36:20.364Z,9.50
2019-03-31T11:38:49.886Z,9.50
2019-03-31T11:41:19.279Z,9.27
2019-03-31T11:43:48.728Z,9.67
2019-03-31T11:46:18.465Z,9.27
2019-03-31T11:48:47.917Z,9.50
2019-03-31T11:51:19.368Z,5.37
2019-03-31T11:53:48.887Z,5.53
2019-03-31T11:56:18.375Z,5.27
2019-03-31T11:58:47.741Z,6.20
2019-03-31T12:01:17.384Z,7.37
2019-03-31T12:03:46.819Z,8.20
2019-03-31T12:06:16.283Z,7.03
2019-03-31T12:08:45.853Z,7.47
2019-03-31T12:11:15.257Z,7.07
2019-03-31T12:13:44.716Z,7.90
2019-03-31T12:16:14.144Z,6.30
2019-03-31T12:18:43.580Z,6.53
2019-03-31T12:21:13.144Z,4.77
2019-03-31T12:23:42.577Z,5.77
2019-03-31T12:26:12.096Z,6.13
2019-03-31T12:28:41.519Z,6.00
2019-03-31T12:31:11.072Z,6.10
2019-03-31T12:33:40.434Z,5.73
2019-03-31T12:36:09.793Z,6.40
2019-03-31T12:38:39.239Z,6.13
2019-03-31T12:41:08.801Z,6.50
2019-03-31T12:43:38.573Z,5.30
2019-03-31T12:46:08.140Z,6.00
2019-03-31T12:48:37.620Z,5.83
2019-03-31T12:51:07.269Z,5.90
2019-03-31T12:53:36.655Z,6.83
2019-03-31T12:56:06.481Z,5.60
2019-03-31T12:58:36.118Z,5.00
2019-03-31T13:01:05.942Z,4.87
2019-03-31T13:03:35.470Z,5.77
2019-03-31T13:06:05.226Z,5.87
2019-03-31T13:08:34.696Z,6.00
2019-03-31T13:11:04.277Z,5.53
2019-03-31T13:13:33.941Z,5.20
2019-03-31T13:16:03.613Z,5.00
2019-03-31T13:18:33.150Z,5.60
2019-03-31T13:21:02.649Z,5.10
2019-03-31T13:23:32.129Z,4.97
2019-03-31T13:26:06.561Z,5.60
2019-03-31T13:28:36.225Z,4.70
2019-03-31T13:31:06.970Z,4.60
2019-03-31T13:33:36.602Z,6.20
2019-03-31T13:36:06.500Z,5.10
2019-03-31T13:38:36.025Z,5.77
2019-03-31T13:41:05.699Z,4.60
2019-03-31T13:43:35.273Z,4.30
2019-03-31T13:46:04.973Z,4.93
2019-03-31T13:48:34.520Z,4.90
2019-03-31T13:51:04.053Z,5.03
2019-03-31T13:53:33.669Z,4.70
2019-03-31T13:56:03.695Z,4.07
2019-03-31T13:58:33.699Z,5.27
2019-03-31T14:01:03.764Z,5.10
2019-03-31T14:03:33.577Z,5.07
2019-03-31T14:06:02.992Z,4.70
2019-03-31T14:08:32.554Z,5.80
2019-03-31T14:11:02.049Z,5.57
2019-03-31T14:13:31.497Z,5.43
2019-03-31T14:16:00.953Z,4.90
2019-03-31T14:18:30.589Z,4.37
2019-03-31T14:21:00.259Z,4.60
2019-03-31T14:23:32.670Z,4.80
2019-03-31T14:26:02.134Z,4.47
2019-03-31T14:28:31.658Z,4.80
2019-03-31T14:31:01.245Z,4.83
2019-03-31T14:33:30.734Z,4.10
2019-03-31T14:36:00.405Z,4.50
2019-03-31T14:38:40.103Z,5.37
2019-03-31T14:41:01.292Z,5.60
2019-03-31T14:43:30.866Z,4.00
2019-03-31T14:46:00.389Z,4.33
2019-03-31T14:48:30.194Z,5.60
2019-03-31T14:50:59.617Z,4.33
2019-03-31T14:53:29.022Z,5.13
2019-03-31T14:55:58.536Z,5.27
2019-03-31T14:58:28.157Z,6.60
2019-03-31T15:00:57.605Z,5.50
2019-03-31T15:03:27.128Z,5.53
2019-03-31T15:05:56.957Z,6.90
2019-03-31T15:08:26.425Z,7.30
2019-03-31T15:10:55.958Z,6.20
2019-03-31T15:13:25.396Z,5.70
2019-03-31T15:15:54.833Z,5.30
2019-03-31T15:18:24.581Z,5.63
2019-03-31T15:20:54.513Z,5.23
2019-03-31T15:23:29.190Z,6.20
2019-03-31T15:25:56.085Z,5.33
2019-03-31T15:28:25.439Z,4.80
2019-03-31T15:30:56.106Z,5.10
2019-03-31T15:33:25.581Z,6.60
2019-03-31T15:35:54.977Z,6.10
2019-03-31T15:38:24.536Z,6.23
2019-03-31T15:40:54.073Z,7.70
2019-03-31T15:43:23.568Z,7.33
2019-03-31T15:45:53.341Z,7.30
2019-03-31T15:48:22.949Z,8.07
2019-03-31T15:50:52.529Z,7.00
2019-03-31T15:53:22.153Z,6.73
2019-03-31T15:55:51.557Z,6.47
2019-03-31T15:58:21.125Z,6.73
2019-03-31T16:00:59.683Z,6.03
2019-03-31T16:03:29.168Z,6.90
2019-03-31T16:05:58.605Z,6.13
2019-03-31T16:08:27.581Z,6.60
2019-03-31T16:10:56.561Z,7.47
2019-03-31T16:13:25.576Z,6.40
2019-03-31T16:15:54.396Z,7.03
2019-03-31T16:18:23.301Z,7.20
2019-03-31T16:20:52.173Z,8.80
2019-03-31T16:23:21.164Z,8.80
2019-03-31T16:25:52.728Z,9.00
2019-03-31T16:28:21.594Z,8.60
2019-03-31T16:30:50.504Z,9.27
2019-03-31T16:33:19.476Z,8.77
2019-03-31T16:35:55.830Z,8.83
2019-03-31T16:38:25.911Z,7.87
2019-03-31T16:40:55.085Z,8.03
2019-03-31T16:43:24.028Z,7.20
2019-03-31T16:45:52.935Z,7.75
2019-03-31T16:48:22.000Z,10.40
2019-03-31T16:50:50.925Z,18.23
2019-03-31T16:53:20.116Z,24.30
2019-03-31T16:55:49.160Z,26.40
2019-03-31T16:58:18.159Z,27.60
2019-03-31T17:00:47.198Z,26.50
2019-03-31T17:03:18.180Z,27.03
2019-03-31T17:05:47.223Z,26.23
2019-03-31T17:08:16.182Z,29.67
2019-03-31T17:10:45.076Z,27.33
2019-03-31T17:13:14.229Z,30.60
2019-03-31T17:15:43.207Z,27.70
2019-03-31T17:18:12.092Z,29.57
2019-03-31T17:20:41.001Z,28.10
2019-03-31T17:23:09.898Z,28.63
2019-03-31T17:25:38.947Z,28.80
2019-03-31T17:28:10.140Z,31.10
2019-03-31T17:30:38.644Z,31.80
2019-03-31T17:33:07.588Z,32.60
2019-03-31T17:35:36.836Z,29.47
2019-03-31T17:38:05.716Z,29.70
2019-03-31T17:40:35.068Z,31.20
2019-03-31T17:43:04.000Z,32.27
2019-03-31T17:45:32.952Z,31.23
2019-03-31T17:48:02.476Z,31.00
2019-03-31T17:50:31.504Z,31.20
2019-03-31T17:53:03.632Z,31.47
2019-03-31T17:55:31.074Z,30.97
2019-03-31T17:58:00.014Z,33.00
2019-03-31T18:00:28.929Z,29.90
2019-03-31T18:02:58.008Z,31.90
2019-03-31T18:05:27.009Z,29.20
2019-03-31T18:07:55.925Z,30.83
2019-03-31T18:10:24.784Z,29.97
2019-03-31T18:12:53.712Z,30.67
2019-03-31T18:15:22.725Z,29.60
2019-03-31T18:17:51.764Z,32.43
2019-03-31T18:20:20.797Z,31.23
2019-03-31T18:22:49.776Z,29.03
2019-03-31T18:25:18.583Z,29.57
2019-03-31T18:27:47.576Z,30.17
2019-03-31T18:30:17.256Z,30.20
2019-03-31T18:32:46.245Z,29.57
2019-03-31T18:35:16.930Z,27.90
2019-03-31T18:37:45.918Z,30.13
2019-03-31T18:40:15.021Z,28.53
2019-03-31T18:42:43.980Z,27.57
2019-03-31T18:45:13.029Z,29.40
2019-03-31T18:47:41.961Z,26.67
2019-03-31T18:50:11.321Z,26.80
2019-03-31T18:52:40.356Z,28.97
2019-03-31T18:55:21.592Z,26.00
2019-03-31T18:58:12.255Z,28.70
2019-03-31T19:00:56.744Z,25.50
2019-03-31T19:03:47.663Z,28.07
2019-03-31T19:06:44.589Z,25.20
2019-03-31T19:09:31.392Z,24.73
2019-03-31T19:12:18.149Z,23.23
2019-03-31T19:15:04.624Z,23.00
2019-03-31T19:18:01.578Z,23.97
2019-03-31T19:20:39.517Z,20.57
2019-03-31T19:23:31.533Z,22.37
2019-03-31T19:26:18.534Z,21.40
2019-03-31T19:28:57.469Z,20.80
2019-03-31T19:31:34.701Z,19.10
2019-03-31T19:34:10.065Z,18.87
2019-03-31T19:37:07.114Z,18.77
2019-03-31T19:40:13.635Z,18.90
2019-03-31T19:43:01.712Z,18.77
2019-03-31T19:45:55.566Z,18.30
2019-03-31T19:48:47.022Z,19.00
2019-03-31T19:51:22.782Z,18.97
2019-03-31T19:54:01.314Z,16.20
2019-03-31T19:56:52.703Z,17.13
2019-03-31T19:59:49.236Z,17.87
2019-03-31T20:02:37.348Z,17.27
2019-03-31T20:05:24.279Z,17.00
2019-03-31T20:08:01.822Z,18.57
2019-03-31T20:10:36.690Z,17.10
2019-03-31T20:13:33.927Z,17.20
2019-03-31T20:16:27.970Z,16.77
2019-03-31T20:19:08.286Z,17.43
2019-03-31T20:21:56.238Z,18.40
2019-03-31T20:24:50.063Z,16.90
2019-03-31T20:27:40.849Z,15.73
2019-03-31T20:30:29.023Z,14.70
2019-03-31T20:33:23.165Z,16.93
2019-03-31T20:36:02.902Z,17.87
2019-03-31T20:38:42.491Z,15.50
2019-03-31T20:41:33.353Z,16.47
2019-03-31T20:44:02.291Z,16.30
2019-03-31T20:46:31.289Z,15.70
2019-03-31T20:49:00.288Z,15.70
2019-03-31T20:51:29.217Z,16.30
2019-03-31T20:53:58.140Z,15.37
2019-03-31T20:56:27.072Z,15.30
2019-03-31T20:58:56.080Z,14.50
2019-03-31T21:01:25.109Z,16.57
2019-03-31T21:03:54.029Z,16.07
2019-03-31T21:06:22.942Z,14.57
2019-03-31T21:08:51.834Z,13.87
2019-03-31T21:11:20.665Z,16.10
2019-03-31T21:13:49.637Z,14.10
2019-03-31T21:16:18.560Z,14.50
2019-03-31T21:18:47.631Z,15.47
2019-03-31T21:21:16.520Z,16.70
2019-03-31T21:23:45.445Z,15.73
2019-03-31T21:26:14.873Z,13.93
2019-03-31T21:28:43.889Z,16.70
2019-03-31T21:31:12.756Z,15.87
2019-03-31T21:33:41.842Z,14.70
2019-03-31T21:36:10.759Z,16.83
2019-03-31T21:38:39.698Z,15.83
2019-03-31T21:41:08.655Z,15.57
2019-03-31T21:43:37.561Z,15.10
2019-03-31T21:46:06.420Z,15.80
2019-03-31T21:48:35.233Z,16.87
2019-03-31T21:51:04.531Z,15.27
2019-03-31T21:53:33.532Z,16.27
2019-03-31T21:56:02.572Z,16.67
2019-03-31T21:58:31.461Z,16.40
2019-03-31T22:01:00.740Z,15.40
2019-03-31T22:03:29.857Z,14.47
2019-03-31T22:05:58.786Z,15.37
2019-03-31T22:08:27.667Z,15.90
2019-03-31T22:10:56.645Z,15.70
2019-03-31T22:13:25.582Z,14.17
2019-03-31T22:15:54.499Z,16.00
2019-03-31T22:18:23.925Z,17.50
2019-03-31T22:20:52.853Z,17.33
2019-03-31T22:23:21.738Z,16.53
2019-03-31T22:25:50.742Z,16.50
2019-03-31T22:28:19.781Z,15.80
2019-03-31T22:30:48.669Z,14.87
2019-03-31T22:33:17.581Z,17.57
2019-03-31T22:36:05.589Z,15.60
2019-03-31T22:38:34.609Z,16.17
2019-03-31T22:41:03.674Z,16.77
2019-03-31T22:43:32.600Z,16.77
2019-03-31T22:46:01.613Z,17.77
2019-03-31T22:48:30.544Z,16.40
2019-03-31T22:50:59.526Z,16.87
2019-03-31T22:53:28.588Z,17.00
2019-03-31T22:55:57.529Z,17.40
2019-03-31T22:58:26.400Z,17.03
2019-03-31T23:00:55.692Z,16.20
2019-03-31T23:03:24.728Z,17.70
2019-03-31T23:05:53.837Z,17.10
2019-03-31T23:08:22.735Z,18.13
2019-03-31T23:10:51.537Z,16.40
2019-03-31T23:13:20.696Z,16.87
2019-03-31T23:15:49.610Z,11.90
2019-03-31T23:18:18.541Z,16.60
2019-03-31T23:20:49.065Z,15.83
2019-03-31T23:23:18.003Z,15.63
2019-03-31T23:25:47.013Z,16.40
2019-03-31T23:28:15.924Z,16.50
2019-03-31T23:30:45.221Z,16.70
2019-03-31T23:33:14.153Z,16.30
2019-03-31T23:35:43.089Z,16.97
2019-03-31T23:38:11.993Z,16.27
2019-03-31T23:40:41.085Z,16.43
2019-03-31T23:43:10.149Z,16.90
2019-03-31T23:45:39.000Z,14.20
2019-03-31T23:48:07.892Z,14.43
2019-03-31T23:50:36.804Z,15.80
2019-03-31T23:53:05.794Z,15.60
2019-03-31T23:55:34.716Z,14.20
2019-03-31T23:58:03.621Z,16.10
